This is the latest recevied weather packets stored in our database for station/object WA1TYB-13. If no packets are shown the sender has not sent any weather packets the latest 10 day(s).
| Time | Temp. | Humidity | Pressure | Rain* | Wind** | Luminosity | Snow |
|---|---|---|---|---|---|---|---|
| 1788453895 | 18.89° C | 37% | 1012.4 hPa | 0 mm | - | 526 W/m² | - |
| 1788453596 | 18.89° C | 39% | 1012.4 hPa | 0 mm | - | 499 W/m² | - |
| 1788453291 | 18.33° C | 38% | 1012.9 hPa | 0 mm | - | 511 W/m² | - |
| 1788452987 | 18.33° C | 39% | 1012.5 hPa | 0 mm | - | 482 W/m² | - |
| 1788452683 | 18.33° C | 41% | 1012.5 hPa | 0 mm | - | 488 W/m² | - |
| 1788452379 | 17.78° C | 42% | 1012.9 hPa | 0 mm | - | 463 W/m² | - |
| 1788452074 | 17.78° C | 44% | 1012.9 hPa | 0 mm | - | 149 W/m² | - |
| 1788451770 | 16.67° C | 44% | 1012.7 hPa | 0 mm | - | 463 W/m² | - |
| 1788451469 | 16.67° C | 44% | 1013 hPa | 0 mm | - | 166 W/m² | - |
| 1788451167 | 16.67° C | 46% | 1012.9 hPa | 0 mm | - | 393 W/m² | - |
| 1788450863 | 17.22° C | 45% | 1012.7 hPa | 0 mm | - | 134 W/m² | - |
| 1788450559 | 16.67° C | 46% | 1012.7 hPa | 0 mm | - | 396 W/m² | - |
| 1788450255 | 16.11° C | 45% | 1013 hPa | 0 mm | - | 364 W/m² | - |
| 1788449955 | 16.11° C | 48% | 1013.1 hPa | 0 mm | - | 55 W/m² | - |
| 1788449650 | 15.56° C | 49% | 1012.9 hPa | 0 mm | - | 309 W/m² | - |
| 1788449347 | 15.56° C | 50% | 1013 hPa | 0 mm | - | 113 W/m² | - |
| 1788449043 | 15° C | 51% | 1013.3 hPa | 0 mm | - | 66 W/m² | - |
| 1788448738 | 14.44° C | 52% | 1013 hPa | 0 mm | - | 184 W/m² | - |
| 1788448433 | 13.89° C | 55% | 1013.1 hPa | 0 mm | - | 206 W/m² | - |
| 1788448132 | 12.78° C | 56% | 1013.4 hPa | 0 mm | - | 185 W/m² | - |
| 1788447827 | 12.78° C | 57% | 1013.8 hPa | 0 mm | - | 88 W/m² | - |
| 1788447522 | 13.89° C | 53% | 1013.3 hPa | 0 mm | - | 99 W/m² | - |
| 1788447217 | 12.78° C | 57% | 1013.2 hPa | 0 mm | - | 140 W/m² | - |
| 1788446916 | 11.67° C | 61% | 1013.3 hPa | 0 mm | - | 70 W/m² | - |
| 1788446612 | 11.11° C | 64% | 1013.1 hPa | 0 mm | - | 159 W/m² | - |
* Rain latest hour (hover to see other rain measurements)
** Current wind speed in m/s (hover to see current wind gust speed)